sensor_id;sensor_type;location;lat;lon;timestamp;P1;durP1;ratioP1;P2;durP2;ratioP2
17228;SDS011;8731;50.364;8.958;2022-08-03T00:02:55;1.90;;;1.80;;
17228;SDS011;8731;50.364;8.958;2022-08-03T00:07:17;2.20;;;2.00;;
17228;SDS011;8731;50.364;8.958;2022-08-03T00:11:41;5.00;;;2.40;;
17228;SDS011;8731;50.364;8.958;2022-08-03T00:16:04;2.73;;;1.97;;
17228;SDS011;8731;50.364;8.958;2022-08-03T00:20:26;3.50;;;2.00;;
17228;SDS011;8731;50.364;8.958;2022-08-03T00:24:48;4.30;;;2.70;;
17228;SDS011;8731;50.364;8.958;2022-08-03T00:29:12;4.43;;;2.20;;
17228;SDS011;8731;50.364;8.958;2022-08-03T00:33:34;5.03;;;2.40;;
17228;SDS011;8731;50.364;8.958;2022-08-03T00:37:56;2.53;;;2.23;;
17228;SDS011;8731;50.364;8.958;2022-08-03T00:42:19;2.30;;;2.07;;
17228;SDS011;8731;50.364;8.958;2022-08-03T00:46:43;2.63;;;2.40;;
17228;SDS011;8731;50.364;8.958;2022-08-03T00:51:05;2.70;;;2.20;;
17228;SDS011;8731;50.364;8.958;2022-08-03T00:55:28;2.60;;;2.40;;
17228;SDS011;8731;50.364;8.958;2022-08-03T00:59:50;3.30;;;2.30;;
17228;SDS011;8731;50.364;8.958;2022-08-03T01:04:14;2.90;;;1.87;;
17228;SDS011;8731;50.364;8.958;2022-08-03T01:08:38;2.43;;;2.10;;
17228;SDS011;8731;50.364;8.958;2022-08-03T01:13:13;3.07;;;2.20;;
17228;SDS011;8731;50.364;8.958;2022-08-03T01:17:50;3.07;;;2.33;;
17228;SDS011;8731;50.364;8.958;2022-08-03T01:22:31;3.23;;;2.63;;
17228;SDS011;8731;50.364;8.958;2022-08-03T01:27:17;6.77;;;2.30;;
17228;SDS011;8731;50.364;8.958;2022-08-03T01:31:47;4.10;;;2.43;;
17228;SDS011;8731;50.364;8.958;2022-08-03T01:36:21;2.17;;;1.93;;
17228;SDS011;8731;50.364;8.958;2022-08-03T01:40:46;3.47;;;2.43;;
17228;SDS011;8731;50.364;8.958;2022-08-03T01:45:11;2.40;;;2.20;;
17228;SDS011;8731;50.364;8.958;2022-08-03T01:49:39;2.83;;;2.30;;
17228;SDS011;8731;50.364;8.958;2022-08-03T01:54:05;2.70;;;2.50;;
17228;SDS011;8731;50.364;8.958;2022-08-03T01:58:31;2.50;;;2.30;;
17228;SDS011;8731;50.364;8.958;2022-08-03T02:02:56;2.97;;;2.67;;
17228;SDS011;8731;50.364;8.958;2022-08-03T02:07:22;2.67;;;2.43;;
17228;SDS011;8731;50.364;8.958;2022-08-03T02:11:46;4.13;;;2.20;;
17228;SDS011;8731;50.364;8.958;2022-08-03T02:16:11;2.57;;;2.33;;
17228;SDS011;8731;50.364;8.958;2022-08-03T02:20:35;3.43;;;2.37;;
17228;SDS011;8731;50.364;8.958;2022-08-03T02:25:00;2.63;;;2.20;;
17228;SDS011;8731;50.364;8.958;2022-08-03T02:29:24;4.63;;;2.33;;
17228;SDS011;8731;50.364;8.958;2022-08-03T02:33:53;6.37;;;2.67;;
17228;SDS011;8731;50.364;8.958;2022-08-03T02:38:20;3.03;;;2.37;;
17228;SDS011;8731;50.364;8.958;2022-08-03T02:42:50;3.30;;;2.23;;
17228;SDS011;8731;50.364;8.958;2022-08-03T02:47:17;3.83;;;2.43;;
17228;SDS011;8731;50.364;8.958;2022-08-03T02:51:41;3.83;;;2.27;;
17228;SDS011;8731;50.364;8.958;2022-08-03T02:56:07;4.20;;;2.40;;
17228;SDS011;8731;50.364;8.958;2022-08-03T03:00:32;2.93;;;2.23;;
17228;SDS011;8731;50.364;8.958;2022-08-03T03:04:56;2.87;;;2.37;;
17228;SDS011;8731;50.364;8.958;2022-08-03T03:09:21;4.00;;;2.20;;
17228;SDS011;8731;50.364;8.958;2022-08-03T03:13:44;3.27;;;2.60;;
17228;SDS011;8731;50.364;8.958;2022-08-03T03:18:09;3.13;;;2.80;;
17228;SDS011;8731;50.364;8.958;2022-08-03T03:22:34;5.53;;;2.90;;
17228;SDS011;8731;50.364;8.958;2022-08-03T03:26:58;4.27;;;2.73;;
17228;SDS011;8731;50.364;8.958;2022-08-03T03:31:21;3.07;;;2.70;;
17228;SDS011;8731;50.364;8.958;2022-08-03T03:35:45;3.93;;;2.90;;
17228;SDS011;8731;50.364;8.958;2022-08-03T03:40:08;2.77;;;2.57;;
17228;SDS011;8731;50.364;8.958;2022-08-03T03:44:32;2.57;;;2.33;;
17228;SDS011;8731;50.364;8.958;2022-08-03T03:48:54;3.20;;;2.60;;
17228;SDS011;8731;50.364;8.958;2022-08-03T03:53:18;4.67;;;2.70;;
17228;SDS011;8731;50.364;8.958;2022-08-03T03:57:41;7.63;;;2.67;;
17228;SDS011;8731;50.364;8.958;2022-08-03T04:02:03;2.80;;;2.60;;
17228;SDS011;8731;50.364;8.958;2022-08-03T04:06:26;3.53;;;2.37;;
17228;SDS011;8731;50.364;8.958;2022-08-03T04:11:10;4.27;;;2.53;;
17228;SDS011;8731;50.364;8.958;2022-08-03T04:15:39;5.37;;;2.60;;
17228;SDS011;8731;50.364;8.958;2022-08-03T04:20:03;3.63;;;2.40;;
17228;SDS011;8731;50.364;8.958;2022-08-03T04:24:29;2.90;;;2.40;;
17228;SDS011;8731;50.364;8.958;2022-08-03T04:28:59;3.67;;;2.33;;
17228;SDS011;8731;50.364;8.958;2022-08-03T04:33:22;5.10;;;2.90;;
17228;SDS011;8731;50.364;8.958;2022-08-03T04:37:48;4.53;;;2.77;;
17228;SDS011;8731;50.364;8.958;2022-08-03T04:42:14;3.90;;;2.70;;
17228;SDS011;8731;50.364;8.958;2022-08-03T04:46:42;4.17;;;2.87;;
17228;SDS011;8731;50.364;8.958;2022-08-03T04:51:04;4.37;;;2.80;;
17228;SDS011;8731;50.364;8.958;2022-08-03T04:55:27;2.73;;;2.53;;
17228;SDS011;8731;50.364;8.958;2022-08-03T04:59:51;3.13;;;2.60;;
17228;SDS011;8731;50.364;8.958;2022-08-03T05:04:16;3.30;;;2.90;;
17228;SDS011;8731;50.364;8.958;2022-08-03T05:08:39;3.13;;;2.83;;
17228;SDS011;8731;50.364;8.958;2022-08-03T05:13:01;3.87;;;2.70;;
17228;SDS011;8731;50.364;8.958;2022-08-03T05:17:24;2.77;;;2.57;;
17228;SDS011;8731;50.364;8.958;2022-08-03T05:21:48;3.53;;;2.37;;
17228;SDS011;8731;50.364;8.958;2022-08-03T05:26:11;4.60;;;2.23;;
17228;SDS011;8731;50.364;8.958;2022-08-03T05:30:33;2.33;;;2.20;;
17228;SDS011;8731;50.364;8.958;2022-08-03T05:34:56;2.77;;;2.57;;
17228;SDS011;8731;50.364;8.958;2022-08-03T05:39:21;3.73;;;2.50;;
17228;SDS011;8731;50.364;8.958;2022-08-03T05:43:43;3.03;;;2.10;;
17228;SDS011;8731;50.364;8.958;2022-08-03T05:48:06;4.30;;;2.43;;
17228;SDS011;8731;50.364;8.958;2022-08-03T05:52:29;3.67;;;2.20;;
17228;SDS011;8731;50.364;8.958;2022-08-03T05:56:52;3.83;;;2.57;;
17228;SDS011;8731;50.364;8.958;2022-08-03T06:01:15;3.33;;;2.07;;
17228;SDS011;8731;50.364;8.958;2022-08-03T06:05:38;3.10;;;2.10;;
17228;SDS011;8731;50.364;8.958;2022-08-03T06:10:00;3.97;;;2.10;;
17228;SDS011;8731;50.364;8.958;2022-08-03T06:14:25;2.10;;;1.90;;
17228;SDS011;8731;50.364;8.958;2022-08-03T06:18:47;2.20;;;1.83;;
17228;SDS011;8731;50.364;8.958;2022-08-03T06:23:09;2.10;;;1.90;;
17228;SDS011;8731;50.364;8.958;2022-08-03T06:27:32;4.43;;;2.07;;
17228;SDS011;8731;50.364;8.958;2022-08-03T06:31:56;3.60;;;1.80;;
17228;SDS011;8731;50.364;8.958;2022-08-03T06:36:19;3.53;;;2.13;;
17228;SDS011;8731;50.364;8.958;2022-08-03T06:40:41;2.90;;;2.00;;
17228;SDS011;8731;50.364;8.958;2022-08-03T06:45:04;2.45;;;1.63;;
17228;SDS011;8731;50.364;8.958;2022-08-03T06:49:30;2.13;;;1.80;;
17228;SDS011;8731;50.364;8.958;2022-08-03T06:53:52;3.67;;;2.05;;
17228;SDS011;8731;50.364;8.958;2022-08-03T06:58:14;1.77;;;1.67;;
17228;SDS011;8731;50.364;8.958;2022-08-03T07:02:37;2.35;;;1.50;;
17228;SDS011;8731;50.364;8.958;2022-08-03T07:07:01;1.75;;;1.17;;
17228;SDS011;8731;50.364;8.958;2022-08-03T07:11:23;2.08;;;1.50;;
17228;SDS011;8731;50.364;8.958;2022-08-03T07:15:47;1.42;;;1.33;;
17228;SDS011;8731;50.364;8.958;2022-08-03T07:20:10;4.03;;;1.58;;
17228;SDS011;8731;50.364;8.958;2022-08-03T07:24:35;4.13;;;1.60;;
17228;SDS011;8731;50.364;8.958;2022-08-03T07:28:57;2.83;;;1.25;;
17228;SDS011;8731;50.364;8.958;2022-08-03T07:33:20;1.83;;;1.50;;
17228;SDS011;8731;50.364;8.958;2022-08-03T07:37:42;4.13;;;1.20;;
17228;SDS011;8731;50.364;8.958;2022-08-03T07:42:06;2.03;;;1.33;;
17228;SDS011;8731;50.364;8.958;2022-08-03T07:46:28;3.53;;;1.38;;
17228;SDS011;8731;50.364;8.958;2022-08-03T07:50:51;1.58;;;1.20;;
17228;SDS011;8731;50.364;8.958;2022-08-03T07:55:14;2.85;;;1.30;;
17228;SDS011;8731;50.364;8.958;2022-08-03T07:59:38;2.70;;;1.30;;
17228;SDS011;8731;50.364;8.958;2022-08-03T08:04:01;2.55;;;1.30;;
17228;SDS011;8731;50.364;8.958;2022-08-03T08:08:24;3.22;;;1.20;;
17228;SDS011;8731;50.364;8.958;2022-08-03T08:12:46;2.60;;;1.70;;
17228;SDS011;8731;50.364;8.958;2022-08-03T08:17:10;1.27;;;1.17;;
17228;SDS011;8731;50.364;8.958;2022-08-03T08:21:32;2.25;;;1.30;;
17228;SDS011;8731;50.364;8.958;2022-08-03T08:25:55;2.10;;;1.10;;
17228;SDS011;8731;50.364;8.958;2022-08-03T08:30:18;2.28;;;1.45;;
17228;SDS011;8731;50.364;8.958;2022-08-03T08:34:44;3.67;;;1.33;;
17228;SDS011;8731;50.364;8.958;2022-08-03T08:39:06;2.22;;;1.23;;
17228;SDS011;8731;50.364;8.958;2022-08-03T08:43:28;3.90;;;1.27;;
17228;SDS011;8731;50.364;8.958;2022-08-03T08:47:50;2.90;;;1.27;;
17228;SDS011;8731;50.364;8.958;2022-08-03T08:52:16;1.83;;;1.23;;
17228;SDS011;8731;50.364;8.958;2022-08-03T08:56:45;2.40;;;1.38;;
17228;SDS011;8731;50.364;8.958;2022-08-03T09:01:09;4.10;;;1.55;;
17228;SDS011;8731;50.364;8.958;2022-08-03T09:05:31;2.40;;;1.02;;
17228;SDS011;8731;50.364;8.958;2022-08-03T09:09:55;3.67;;;1.10;;
17228;SDS011;8731;50.364;8.958;2022-08-03T09:14:17;2.30;;;0.98;;
17228;SDS011;8731;50.364;8.958;2022-08-03T09:18:40;1.58;;;1.10;;
17228;SDS011;8731;50.364;8.958;2022-08-03T09:23:05;5.13;;;1.40;;
17228;SDS011;8731;50.364;8.958;2022-08-03T09:27:32;2.70;;;1.20;;
17228;SDS011;8731;50.364;8.958;2022-08-03T09:32:04;2.03;;;1.20;;
17228;SDS011;8731;50.364;8.958;2022-08-03T09:36:32;1.67;;;1.20;;
17228;SDS011;8731;50.364;8.958;2022-08-03T09:40:57;4.82;;;1.10;;
17228;SDS011;8731;50.364;8.958;2022-08-03T09:45:26;1.20;;;1.10;;
17228;SDS011;8731;50.364;8.958;2022-08-03T09:49:55;1.70;;;1.23;;
17228;SDS011;8731;50.364;8.958;2022-08-03T09:54:24;4.25;;;1.40;;
17228;SDS011;8731;50.364;8.958;2022-08-03T09:58:47;3.45;;;1.10;;
17228;SDS011;8731;50.364;8.958;2022-08-03T10:03:11;1.70;;;1.20;;
17228;SDS011;8731;50.364;8.958;2022-08-03T10:07:40;2.95;;;1.42;;
17228;SDS011;8731;50.364;8.958;2022-08-03T10:12:08;2.47;;;1.17;;
17228;SDS011;8731;50.364;8.958;2022-08-03T10:16:34;1.75;;;1.00;;
17228;SDS011;8731;50.364;8.958;2022-08-03T10:21:02;2.72;;;1.10;;
17228;SDS011;8731;50.364;8.958;2022-08-03T10:25:28;1.35;;;1.00;;
17228;SDS011;8731;50.364;8.958;2022-08-03T10:29:52;1.95;;;1.15;;
17228;SDS011;8731;50.364;8.958;2022-08-03T10:34:21;3.35;;;1.20;;
17228;SDS011;8731;50.364;8.958;2022-08-03T10:38:47;1.48;;;1.38;;
17228;SDS011;8731;50.364;8.958;2022-08-03T10:43:16;2.90;;;1.38;;
17228;SDS011;8731;50.364;8.958;2022-08-03T10:47:42;4.20;;;1.30;;
17228;SDS011;8731;50.364;8.958;2022-08-03T10:52:05;4.05;;;1.20;;
17228;SDS011;8731;50.364;8.958;2022-08-03T10:56:38;2.25;;;1.60;;
17228;SDS011;8731;50.364;8.958;2022-08-03T11:06:13;1.40;;;1.30;;
17228;SDS011;8731;50.364;8.958;2022-08-03T11:10:38;2.08;;;1.40;;
17228;SDS011;8731;50.364;8.958;2022-08-03T11:15:03;2.88;;;1.30;;
17228;SDS011;8731;50.364;8.958;2022-08-03T11:19:41;1.55;;;1.30;;
17228;SDS011;8731;50.364;8.958;2022-08-03T11:24:05;2.13;;;1.25;;
17228;SDS011;8731;50.364;8.958;2022-08-03T11:28:28;4.57;;;1.40;;
17228;SDS011;8731;50.364;8.958;2022-08-03T11:32:55;1.88;;;1.20;;
17228;SDS011;8731;50.364;8.958;2022-08-03T11:37:21;2.08;;;1.30;;
17228;SDS011;8731;50.364;8.958;2022-08-03T11:41:44;2.15;;;1.08;;
17228;SDS011;8731;50.364;8.958;2022-08-03T11:46:08;2.75;;;1.35;;
17228;SDS011;8731;50.364;8.958;2022-08-03T11:50:37;4.20;;;1.10;;
17228;SDS011;8731;50.364;8.958;2022-08-03T11:55:00;2.13;;;1.23;;
17228;SDS011;8731;50.364;8.958;2022-08-03T11:59:30;1.40;;;1.30;;
17228;SDS011;8731;50.364;8.958;2022-08-03T12:03:53;2.25;;;1.17;;
17228;SDS011;8731;50.364;8.958;2022-08-03T12:08:17;2.25;;;1.02;;
17228;SDS011;8731;50.364;8.958;2022-08-03T12:12:53;3.90;;;1.10;;
17228;SDS011;8731;50.364;8.958;2022-08-03T12:17:17;2.15;;;1.20;;
17228;SDS011;8731;50.364;8.958;2022-08-03T12:21:44;1.65;;;1.10;;
17228;SDS011;8731;50.364;8.958;2022-08-03T12:26:09;1.48;;;1.20;;
17228;SDS011;8731;50.364;8.958;2022-08-03T12:30:31;2.58;;;1.17;;
17228;SDS011;8731;50.364;8.958;2022-08-03T12:34:54;1.33;;;1.23;;
17228;SDS011;8731;50.364;8.958;2022-08-03T12:39:22;1.77;;;1.23;;
17228;SDS011;8731;50.364;8.958;2022-08-03T12:43:48;3.25;;;1.30;;
17228;SDS011;8731;50.364;8.958;2022-08-03T12:48:11;1.83;;;1.40;;
17228;SDS011;8731;50.364;8.958;2022-08-03T12:52:41;4.22;;;1.40;;
17228;SDS011;8731;50.364;8.958;2022-08-03T12:57:06;1.60;;;1.40;;
17228;SDS011;8731;50.364;8.958;2022-08-03T13:01:36;1.67;;;1.30;;
17228;SDS011;8731;50.364;8.958;2022-08-03T13:05:58;2.15;;;1.13;;
17228;SDS011;8731;50.364;8.958;2022-08-03T13:10:27;1.38;;;1.10;;
17228;SDS011;8731;50.364;8.958;2022-08-03T13:14:53;2.33;;;1.23;;
17228;SDS011;8731;50.364;8.958;2022-08-03T13:19:19;1.20;;;1.10;;
17228;SDS011;8731;50.364;8.958;2022-08-03T13:23:41;2.17;;;1.17;;
17228;SDS011;8731;50.364;8.958;2022-08-03T13:28:05;1.42;;;1.20;;
17228;SDS011;8731;50.364;8.958;2022-08-03T13:32:27;4.15;;;1.35;;
17228;SDS011;8731;50.364;8.958;2022-08-03T13:36:51;1.33;;;1.20;;
17228;SDS011;8731;50.364;8.958;2022-08-03T13:41:13;3.60;;;1.50;;
17228;SDS011;8731;50.364;8.958;2022-08-03T13:45:35;2.22;;;1.23;;
17228;SDS011;8731;50.364;8.958;2022-08-03T13:49:58;5.07;;;1.40;;
17228;SDS011;8731;50.364;8.958;2022-08-03T13:54:21;2.65;;;1.17;;
17228;SDS011;8731;50.364;8.958;2022-08-03T13:58:44;1.50;;;1.40;;
17228;SDS011;8731;50.364;8.958;2022-08-03T14:03:06;5.22;;;1.60;;
17228;SDS011;8731;50.364;8.958;2022-08-03T14:07:29;2.35;;;1.20;;
17228;SDS011;8731;50.364;8.958;2022-08-03T14:11:52;1.40;;;1.30;;
17228;SDS011;8731;50.364;8.958;2022-08-03T14:16:15;1.75;;;1.17;;
17228;SDS011;8731;50.364;8.958;2022-08-03T14:20:37;3.17;;;1.35;;
17228;SDS011;8731;50.364;8.958;2022-08-03T14:24:59;5.47;;;1.50;;
17228;SDS011;8731;50.364;8.958;2022-08-03T14:29:23;3.28;;;1.33;;
17228;SDS011;8731;50.364;8.958;2022-08-03T14:33:45;1.40;;;1.30;;
17228;SDS011;8731;50.364;8.958;2022-08-03T14:38:08;1.83;;;1.23;;
17228;SDS011;8731;50.364;8.958;2022-08-03T14:42:30;3.78;;;1.30;;
17228;SDS011;8731;50.364;8.958;2022-08-03T14:46:54;3.95;;;1.30;;
17228;SDS011;8731;50.364;8.958;2022-08-03T14:51:16;2.17;;;1.30;;
17228;SDS011;8731;50.364;8.958;2022-08-03T14:55:38;1.80;;;1.30;;
17228;SDS011;8731;50.364;8.958;2022-08-03T15:00:01;2.33;;;1.45;;
17228;SDS011;8731;50.364;8.958;2022-08-03T15:04:26;6.20;;;1.50;;
17228;SDS011;8731;50.364;8.958;2022-08-03T15:08:48;2.58;;;1.40;;
17228;SDS011;8731;50.364;8.958;2022-08-03T15:13:11;5.00;;;1.48;;
17228;SDS011;8731;50.364;8.958;2022-08-03T15:17:33;2.22;;;1.30;;
17228;SDS011;8731;50.364;8.958;2022-08-03T15:21:57;1.35;;;1.25;;
17228;SDS011;8731;50.364;8.958;2022-08-03T15:26:19;2.75;;;1.30;;
17228;SDS011;8731;50.364;8.958;2022-08-03T15:30:41;1.55;;;1.20;;
17228;SDS011;8731;50.364;8.958;2022-08-03T15:35:04;1.27;;;1.20;;
17228;SDS011;8731;50.364;8.958;2022-08-03T15:39:28;1.45;;;1.00;;
17228;SDS011;8731;50.364;8.958;2022-08-03T15:43:50;3.95;;;1.33;;
17228;SDS011;8731;50.364;8.958;2022-08-03T15:48:13;1.50;;;1.38;;
17228;SDS011;8731;50.364;8.958;2022-08-03T15:52:35;1.50;;;1.27;;
17228;SDS011;8731;50.364;8.958;2022-08-03T15:56:59;3.22;;;1.40;;
17228;SDS011;8731;50.364;8.958;2022-08-03T16:01:21;3.70;;;1.25;;
17228;SDS011;8731;50.364;8.958;2022-08-03T16:05:45;2.53;;;1.33;;
17228;SDS011;8731;50.364;8.958;2022-08-03T16:10:07;2.42;;;1.33;;
17228;SDS011;8731;50.364;8.958;2022-08-03T16:14:32;4.57;;;1.40;;
17228;SDS011;8731;50.364;8.958;2022-08-03T16:18:55;2.40;;;1.33;;
17228;SDS011;8731;50.364;8.958;2022-08-03T16:23:17;1.40;;;1.30;;
17228;SDS011;8731;50.364;8.958;2022-08-03T16:27:39;3.17;;;1.27;;
17228;SDS011;8731;50.364;8.958;2022-08-03T16:32:03;3.15;;;1.40;;
17228;SDS011;8731;50.364;8.958;2022-08-03T16:36:27;2.50;;;1.33;;
17228;SDS011;8731;50.364;8.958;2022-08-03T16:40:50;1.48;;;1.10;;
17228;SDS011;8731;50.364;8.958;2022-08-03T16:45:13;2.05;;;1.30;;
17228;SDS011;8731;50.364;8.958;2022-08-03T16:49:36;3.60;;;1.17;;
17228;SDS011;8731;50.364;8.958;2022-08-03T16:53:59;6.18;;;1.63;;
17228;SDS011;8731;50.364;8.958;2022-08-03T16:58:21;2.55;;;1.45;;
17228;SDS011;8731;50.364;8.958;2022-08-03T17:02:44;9.07;;;1.52;;
17228;SDS011;8731;50.364;8.958;2022-08-03T17:07:13;3.92;;;1.40;;
17228;SDS011;8731;50.364;8.958;2022-08-03T17:11:36;2.22;;;1.55;;
17228;SDS011;8731;50.364;8.958;2022-08-03T17:16:00;2.13;;;1.40;;
17228;SDS011;8731;50.364;8.958;2022-08-03T17:20:24;1.90;;;1.25;;
17228;SDS011;8731;50.364;8.958;2022-08-03T17:24:49;2.55;;;1.38;;
17228;SDS011;8731;50.364;8.958;2022-08-03T17:29:15;2.88;;;1.38;;
17228;SDS011;8731;50.364;8.958;2022-08-03T17:33:40;2.10;;;1.90;;
17228;SDS011;8731;50.364;8.958;2022-08-03T17:38:03;3.10;;;1.45;;
17228;SDS011;8731;50.364;8.958;2022-08-03T17:42:28;1.63;;;1.30;;
17228;SDS011;8731;50.364;8.958;2022-08-03T17:46:51;1.73;;;1.20;;
17228;SDS011;8731;50.364;8.958;2022-08-03T17:51:14;2.88;;;1.48;;
17228;SDS011;8731;50.364;8.958;2022-08-03T17:55:43;3.42;;;1.60;;
17228;SDS011;8731;50.364;8.958;2022-08-03T18:00:16;4.03;;;1.30;;
17228;SDS011;8731;50.364;8.958;2022-08-03T18:04:59;4.05;;;1.50;;
17228;SDS011;8731;50.364;8.958;2022-08-03T18:09:25;3.28;;;1.60;;
17228;SDS011;8731;50.364;8.958;2022-08-03T18:13:49;2.90;;;1.48;;
17228;SDS011;8731;50.364;8.958;2022-08-03T18:18:25;3.93;;;1.60;;
17228;SDS011;8731;50.364;8.958;2022-08-03T18:22:54;2.27;;;1.50;;
17228;SDS011;8731;50.364;8.958;2022-08-03T18:27:18;2.90;;;1.80;;
17228;SDS011;8731;50.364;8.958;2022-08-03T18:31:43;2.90;;;1.67;;
17228;SDS011;8731;50.364;8.958;2022-08-03T18:36:08;4.77;;;1.73;;
17228;SDS011;8731;50.364;8.958;2022-08-03T18:40:31;3.37;;;1.90;;
17228;SDS011;8731;50.364;8.958;2022-08-03T18:44:54;1.93;;;1.63;;
17228;SDS011;8731;50.364;8.958;2022-08-03T18:49:20;2.30;;;1.93;;
17228;SDS011;8731;50.364;8.958;2022-08-03T18:53:57;2.30;;;1.60;;
17228;SDS011;8731;50.364;8.958;2022-08-03T18:58:32;2.77;;;1.47;;
17228;SDS011;8731;50.364;8.958;2022-08-03T19:03:01;2.63;;;1.40;;
17228;SDS011;8731;50.364;8.958;2022-08-03T19:07:31;1.47;;;1.37;;
17228;SDS011;8731;50.364;8.958;2022-08-03T19:11:57;3.63;;;1.70;;
17228;SDS011;8731;50.364;8.958;2022-08-03T19:16:30;4.67;;;1.80;;
17228;SDS011;8731;50.364;8.958;2022-08-03T19:20:57;3.50;;;1.67;;
17228;SDS011;8731;50.364;8.958;2022-08-03T19:25:22;4.03;;;1.80;;
17228;SDS011;8731;50.364;8.958;2022-08-03T19:29:47;2.30;;;1.77;;
17228;SDS011;8731;50.364;8.958;2022-08-03T19:34:10;2.30;;;1.83;;
17228;SDS011;8731;50.364;8.958;2022-08-03T19:38:34;1.90;;;1.80;;
17228;SDS011;8731;50.364;8.958;2022-08-03T19:42:58;5.03;;;1.70;;
17228;SDS011;8731;50.364;8.958;2022-08-03T19:47:30;2.30;;;1.90;;
17228;SDS011;8731;50.364;8.958;2022-08-03T19:51:56;1.80;;;1.50;;
17228;SDS011;8731;50.364;8.958;2022-08-03T19:56:21;3.63;;;2.20;;
17228;SDS011;8731;50.364;8.958;2022-08-03T20:00:46;2.83;;;1.97;;
17228;SDS011;8731;50.364;8.958;2022-08-03T20:05:11;4.20;;;1.80;;
17228;SDS011;8731;50.364;8.958;2022-08-03T20:09:34;2.43;;;1.80;;
17228;SDS011;8731;50.364;8.958;2022-08-03T20:13:57;2.63;;;1.40;;
17228;SDS011;8731;50.364;8.958;2022-08-03T20:18:20;3.60;;;1.60;;
17228;SDS011;8731;50.364;8.958;2022-08-03T20:22:43;3.77;;;1.73;;
17228;SDS011;8731;50.364;8.958;2022-08-03T20:27:13;2.07;;;1.67;;
17228;SDS011;8731;50.364;8.958;2022-08-03T20:31:40;3.90;;;1.70;;
17228;SDS011;8731;50.364;8.958;2022-08-03T20:36:03;1.90;;;1.70;;
17228;SDS011;8731;50.364;8.958;2022-08-03T20:40:27;1.60;;;1.50;;
17228;SDS011;8731;50.364;8.958;2022-08-03T20:44:49;2.87;;;1.50;;
17228;SDS011;8731;50.364;8.958;2022-08-03T20:49:14;3.30;;;1.90;;
17228;SDS011;8731;50.364;8.958;2022-08-03T20:53:40;1.90;;;1.60;;
17228;SDS011;8731;50.364;8.958;2022-08-03T20:58:07;3.33;;;1.70;;
17228;SDS011;8731;50.364;8.958;2022-08-03T21:02:31;5.80;;;1.90;;
17228;SDS011;8731;50.364;8.958;2022-08-03T21:06:56;9.50;;;1.97;;
17228;SDS011;8731;50.364;8.958;2022-08-03T21:11:23;3.10;;;1.43;;
17228;SDS011;8731;50.364;8.958;2022-08-03T21:15:51;2.20;;;1.57;;
17228;SDS011;8731;50.364;8.958;2022-08-03T21:20:14;2.70;;;1.70;;
17228;SDS011;8731;50.364;8.958;2022-08-03T21:24:38;1.80;;;1.70;;
17228;SDS011;8731;50.364;8.958;2022-08-03T21:29:03;2.87;;;1.90;;
17228;SDS011;8731;50.364;8.958;2022-08-03T21:33:28;3.40;;;1.70;;
17228;SDS011;8731;50.364;8.958;2022-08-03T21:37:51;1.93;;;1.67;;
17228;SDS011;8731;50.364;8.958;2022-08-03T21:42:28;2.63;;;1.80;;
17228;SDS011;8731;50.364;8.958;2022-08-03T21:46:50;5.70;;;1.70;;
17228;SDS011;8731;50.364;8.958;2022-08-03T21:51:16;2.50;;;1.90;;
17228;SDS011;8731;50.364;8.958;2022-08-03T21:55:47;2.10;;;1.77;;
17228;SDS011;8731;50.364;8.958;2022-08-03T22:00:17;1.80;;;1.63;;
17228;SDS011;8731;50.364;8.958;2022-08-03T22:04:41;2.80;;;1.60;;
17228;SDS011;8731;50.364;8.958;2022-08-03T22:09:06;4.70;;;2.00;;
17228;SDS011;8731;50.364;8.958;2022-08-03T22:13:28;3.30;;;1.70;;
17228;SDS011;8731;50.364;8.958;2022-08-03T22:17:50;3.33;;;1.80;;
17228;SDS011;8731;50.364;8.958;2022-08-03T22:22:16;2.93;;;1.70;;
17228;SDS011;8731;50.364;8.958;2022-08-03T22:26:41;2.93;;;1.70;;
17228;SDS011;8731;50.364;8.958;2022-08-03T22:31:25;3.17;;;1.83;;
17228;SDS011;8731;50.364;8.958;2022-08-03T22:35:48;3.80;;;1.83;;
17228;SDS011;8731;50.364;8.958;2022-08-03T22:40:16;1.83;;;1.70;;
17228;SDS011;8731;50.364;8.958;2022-08-03T22:44:39;3.37;;;1.93;;
17228;SDS011;8731;50.364;8.958;2022-08-03T22:49:02;5.10;;;1.80;;
17228;SDS011;8731;50.364;8.958;2022-08-03T22:53:24;3.67;;;1.80;;
17228;SDS011;8731;50.364;8.958;2022-08-03T22:57:47;2.10;;;1.90;;
17228;SDS011;8731;50.364;8.958;2022-08-03T23:02:14;3.57;;;1.90;;
17228;SDS011;8731;50.364;8.958;2022-08-03T23:06:40;1.80;;;1.70;;
17228;SDS011;8731;50.364;8.958;2022-08-03T23:11:04;2.27;;;1.77;;
17228;SDS011;8731;50.364;8.958;2022-08-03T23:15:28;2.00;;;1.90;;
17228;SDS011;8731;50.364;8.958;2022-08-03T23:19:54;3.07;;;1.97;;
17228;SDS011;8731;50.364;8.958;2022-08-03T23:24:22;2.33;;;1.80;;
17228;SDS011;8731;50.364;8.958;2022-08-03T23:28:45;1.80;;;1.70;;
17228;SDS011;8731;50.364;8.958;2022-08-03T23:33:10;3.57;;;1.63;;
17228;SDS011;8731;50.364;8.958;2022-08-03T23:37:35;1.97;;;1.63;;
17228;SDS011;8731;50.364;8.958;2022-08-03T23:41:59;1.80;;;1.70;;
17228;SDS011;8731;50.364;8.958;2022-08-03T23:46:23;5.47;;;1.90;;
17228;SDS011;8731;50.364;8.958;2022-08-03T23:50:51;2.43;;;2.00;;
17228;SDS011;8731;50.364;8.958;2022-08-03T23:55:24;4.10;;;1.87;;
